sensor_id;sensor_type;location;lat;lon;timestamp;P1;durP1;ratioP1;P2;durP2;ratioP2
83649;SDS011;73612;50.948;6.956;2024-03-23T00:53:41;50.13;;;18.30;;
83649;SDS011;73612;50.948;6.956;2024-03-23T00:56:08;60.67;;;19.33;;
83649;SDS011;73612;50.948;6.956;2024-03-23T00:58:35;51.87;;;17.60;;
83649;SDS011;73612;50.948;6.956;2024-03-23T01:01:02;65.67;;;18.63;;
83649;SDS011;73612;50.948;6.956;2024-03-23T01:03:29;65.40;;;21.27;;
83649;SDS011;73612;50.948;6.956;2024-03-23T01:05:59;59.20;;;18.07;;
83649;SDS011;73612;50.948;6.956;2024-03-23T01:08:26;61.63;;;21.00;;
83649;SDS011;73612;50.948;6.956;2024-03-23T01:10:57;49.23;;;17.77;;
83649;SDS011;73612;50.948;6.956;2024-03-23T01:13:23;51.37;;;18.73;;
83649;SDS011;73612;50.948;6.956;2024-03-23T01:15:50;51.80;;;18.53;;
83649;SDS011;73612;50.948;6.956;2024-03-23T01:18:16;48.73;;;17.00;;
83649;SDS011;73612;50.948;6.956;2024-03-23T01:20:43;45.10;;;15.73;;
83649;SDS011;73612;50.948;6.956;2024-03-23T01:23:10;53.50;;;17.50;;
83649;SDS011;73612;50.948;6.956;2024-03-23T01:25:36;31.33;;;11.60;;
83649;SDS011;73612;50.948;6.956;2024-03-23T01:28:03;29.73;;;10.53;;
83649;SDS011;73612;50.948;6.956;2024-03-23T01:30:30;26.30;;;9.67;;
83649;SDS011;73612;50.948;6.956;2024-03-23T01:32:56;25.57;;;9.33;;
83649;SDS011;73612;50.948;6.956;2024-03-23T01:35:23;21.07;;;8.73;;
83649;SDS011;73612;50.948;6.956;2024-03-23T01:37:50;15.70;;;7.37;;
83649;SDS011;73612;50.948;6.956;2024-03-23T01:40:17;17.93;;;7.27;;
83649;SDS011;73612;50.948;6.956;2024-03-23T01:42:54;18.37;;;7.40;;
83649;SDS011;73612;50.948;6.956;2024-03-23T01:45:26;21.77;;;7.40;;
83649;SDS011;73612;50.948;6.956;2024-03-23T01:47:52;17.23;;;7.30;;
83649;SDS011;73612;50.948;6.956;2024-03-23T01:50:19;26.53;;;8.20;;
83649;SDS011;73612;50.948;6.956;2024-03-23T01:52:46;19.13;;;8.43;;
83649;SDS011;73612;50.948;6.956;2024-03-23T01:55:12;20.73;;;8.67;;
83649;SDS011;73612;50.948;6.956;2024-03-23T01:57:39;21.73;;;8.57;;
83649;SDS011;73612;50.948;6.956;2024-03-23T02:00:06;27.47;;;10.10;;
83649;SDS011;73612;50.948;6.956;2024-03-23T02:02:33;29.10;;;8.90;;
83649;SDS011;73612;50.948;6.956;2024-03-23T02:05:00;26.10;;;8.37;;
83649;SDS011;73612;50.948;6.956;2024-03-23T02:07:27;24.93;;;8.93;;
83649;SDS011;73612;50.948;6.956;2024-03-23T02:09:53;30.03;;;9.43;;
83649;SDS011;73612;50.948;6.956;2024-03-23T02:12:20;21.93;;;8.40;;
83649;SDS011;73612;50.948;6.956;2024-03-23T02:14:47;22.93;;;8.67;;
83649;SDS011;73612;50.948;6.956;2024-03-23T02:17:14;22.90;;;7.57;;
83649;SDS011;73612;50.948;6.956;2024-03-23T02:19:40;35.23;;;9.83;;
83649;SDS011;73612;50.948;6.956;2024-03-23T02:22:07;23.73;;;9.00;;
83649;SDS011;73612;50.948;6.956;2024-03-23T02:24:34;17.20;;;6.93;;
83649;SDS011;73612;50.948;6.956;2024-03-23T02:27:01;23.17;;;6.90;;
83649;SDS011;73612;50.948;6.956;2024-03-23T02:29:27;23.00;;;6.90;;
83649;SDS011;73612;50.948;6.956;2024-03-23T02:31:54;21.00;;;7.67;;
83649;SDS011;73612;50.948;6.956;2024-03-23T02:34:20;17.70;;;7.37;;
83649;SDS011;73612;50.948;6.956;2024-03-23T02:36:47;18.63;;;7.53;;
83649;SDS011;73612;50.948;6.956;2024-03-23T02:39:14;14.77;;;6.77;;
83649;SDS011;73612;50.948;6.956;2024-03-23T02:41:40;19.53;;;7.80;;
83649;SDS011;73612;50.948;6.956;2024-03-23T02:44:07;18.57;;;6.40;;
83649;SDS011;73612;50.948;6.956;2024-03-23T02:46:33;13.93;;;5.73;;
83649;SDS011;73612;50.948;6.956;2024-03-23T02:49:00;16.53;;;6.80;;
83649;SDS011;73612;50.948;6.956;2024-03-23T02:51:27;22.20;;;6.90;;
83649;SDS011;73612;50.948;6.956;2024-03-23T02:53:54;14.17;;;5.93;;
83649;SDS011;73612;50.948;6.956;2024-03-23T02:56:20;22.57;;;8.53;;
83649;SDS011;73612;50.948;6.956;2024-03-23T02:58:47;21.80;;;6.20;;
83649;SDS011;73612;50.948;6.956;2024-03-23T03:01:14;19.33;;;6.37;;
83649;SDS011;73612;50.948;6.956;2024-03-23T03:03:40;31.63;;;8.63;;
83649;SDS011;73612;50.948;6.956;2024-03-23T03:06:07;16.73;;;6.53;;
83649;SDS011;73612;50.948;6.956;2024-03-23T03:08:34;26.27;;;7.53;;
83649;SDS011;73612;50.948;6.956;2024-03-23T03:11:01;18.07;;;6.50;;
83649;SDS011;73612;50.948;6.956;2024-03-23T03:13:27;23.13;;;7.60;;
83649;SDS011;73612;50.948;6.956;2024-03-23T03:15:54;17.73;;;7.70;;
83649;SDS011;73612;50.948;6.956;2024-03-23T03:18:21;19.43;;;6.50;;
83649;SDS011;73612;50.948;6.956;2024-03-23T03:20:47;21.70;;;6.50;;
83649;SDS011;73612;50.948;6.956;2024-03-23T03:23:14;22.37;;;8.43;;
83649;SDS011;73612;50.948;6.956;2024-03-23T03:25:41;27.03;;;8.97;;
83649;SDS011;73612;50.948;6.956;2024-03-23T03:28:07;27.97;;;8.37;;
83649;SDS011;73612;50.948;6.956;2024-03-23T03:30:34;20.53;;;7.93;;
83649;SDS011;73612;50.948;6.956;2024-03-23T03:33:01;23.80;;;8.03;;
83649;SDS011;73612;50.948;6.956;2024-03-23T03:35:27;22.33;;;7.47;;
83649;SDS011;73612;50.948;6.956;2024-03-23T03:37:54;19.57;;;7.97;;
83649;SDS011;73612;50.948;6.956;2024-03-23T03:40:21;26.73;;;6.97;;
83649;SDS011;73612;50.948;6.956;2024-03-23T03:42:47;21.70;;;6.57;;
83649;SDS011;73612;50.948;6.956;2024-03-23T03:45:14;24.07;;;7.30;;
83649;SDS011;73612;50.948;6.956;2024-03-23T03:47:40;22.07;;;6.20;;
83649;SDS011;73612;50.948;6.956;2024-03-23T03:50:07;19.97;;;5.23;;
83649;SDS011;73612;50.948;6.956;2024-03-23T03:52:34;28.70;;;5.67;;
83649;SDS011;73612;50.948;6.956;2024-03-23T03:55:02;17.70;;;5.23;;
83649;SDS011;73612;50.948;6.956;2024-03-23T03:57:28;27.73;;;6.30;;
83649;SDS011;73612;50.948;6.956;2024-03-23T03:59:54;24.67;;;8.87;;
83649;SDS011;73612;50.948;6.956;2024-03-23T04:02:21;17.00;;;5.40;;
83649;SDS011;73612;50.948;6.956;2024-03-23T04:04:48;15.30;;;4.60;;
83649;SDS011;73612;50.948;6.956;2024-03-23T04:07:14;21.90;;;4.83;;
83649;SDS011;73612;50.948;6.956;2024-03-23T04:09:41;15.50;;;4.27;;
83649;SDS011;73612;50.948;6.956;2024-03-23T04:12:08;19.30;;;4.23;;
83649;SDS011;73612;50.948;6.956;2024-03-23T04:14:35;18.47;;;4.20;;
83649;SDS011;73612;50.948;6.956;2024-03-23T04:17:01;13.40;;;3.33;;
83649;SDS011;73612;50.948;6.956;2024-03-23T04:19:28;19.93;;;4.80;;
83649;SDS011;73612;50.948;6.956;2024-03-23T04:21:55;20.73;;;4.33;;
83649;SDS011;73612;50.948;6.956;2024-03-23T04:24:22;21.87;;;5.27;;
83649;SDS011;73612;50.948;6.956;2024-03-23T04:26:49;20.57;;;3.80;;
83649;SDS011;73612;50.948;6.956;2024-03-23T04:29:15;21.77;;;4.00;;
83649;SDS011;73612;50.948;6.956;2024-03-23T04:31:42;17.53;;;4.40;;
83649;SDS011;73612;50.948;6.956;2024-03-23T04:34:09;18.77;;;4.80;;
83649;SDS011;73612;50.948;6.956;2024-03-23T04:36:36;15.40;;;3.90;;
83649;SDS011;73612;50.948;6.956;2024-03-23T04:39:02;23.97;;;4.87;;
83649;SDS011;73612;50.948;6.956;2024-03-23T04:41:29;15.53;;;3.90;;
83649;SDS011;73612;50.948;6.956;2024-03-23T04:43:56;19.13;;;4.60;;
83649;SDS011;73612;50.948;6.956;2024-03-23T04:46:22;16.70;;;3.97;;
83649;SDS011;73612;50.948;6.956;2024-03-23T04:48:49;16.93;;;4.10;;
83649;SDS011;73612;50.948;6.956;2024-03-23T04:51:21;16.07;;;3.90;;
83649;SDS011;73612;50.948;6.956;2024-03-23T04:53:47;18.43;;;4.40;;
83649;SDS011;73612;50.948;6.956;2024-03-23T04:56:15;12.60;;;4.43;;
83649;SDS011;73612;50.948;6.956;2024-03-23T04:58:42;15.50;;;4.23;;
83649;SDS011;73612;50.948;6.956;2024-03-23T05:01:09;14.57;;;3.90;;
83649;SDS011;73612;50.948;6.956;2024-03-23T05:03:35;25.23;;;5.00;;
83649;SDS011;73612;50.948;6.956;2024-03-23T05:06:02;20.83;;;4.47;;
83649;SDS011;73612;50.948;6.956;2024-03-23T05:08:29;13.33;;;4.30;;
83649;SDS011;73612;50.948;6.956;2024-03-23T05:10:56;21.57;;;4.37;;
83649;SDS011;73612;50.948;6.956;2024-03-23T05:13:22;23.57;;;6.60;;
83649;SDS011;73612;50.948;6.956;2024-03-23T05:15:53;30.30;;;5.70;;
83649;SDS011;73612;50.948;6.956;2024-03-23T05:18:20;38.07;;;5.53;;
83649;SDS011;73612;50.948;6.956;2024-03-23T05:20:46;16.07;;;3.93;;
83649;SDS011;73612;50.948;6.956;2024-03-23T05:23:13;20.67;;;4.87;;
83649;SDS011;73612;50.948;6.956;2024-03-23T05:25:40;13.83;;;4.10;;
83649;SDS011;73612;50.948;6.956;2024-03-23T05:28:06;25.43;;;5.50;;
83649;SDS011;73612;50.948;6.956;2024-03-23T05:30:33;24.23;;;5.83;;
83649;SDS011;73612;50.948;6.956;2024-03-23T05:33:00;14.90;;;4.50;;
83649;SDS011;73612;50.948;6.956;2024-03-23T05:35:26;15.93;;;4.30;;
83649;SDS011;73612;50.948;6.956;2024-03-23T05:37:53;13.77;;;4.00;;
83649;SDS011;73612;50.948;6.956;2024-03-23T05:40:20;18.10;;;5.20;;
83649;SDS011;73612;50.948;6.956;2024-03-23T05:42:47;22.50;;;5.60;;
83649;SDS011;73612;50.948;6.956;2024-03-23T05:45:13;18.47;;;4.73;;
83649;SDS011;73612;50.948;6.956;2024-03-23T05:47:40;20.50;;;5.13;;
83649;SDS011;73612;50.948;6.956;2024-03-23T05:50:07;27.77;;;4.93;;
83649;SDS011;73612;50.948;6.956;2024-03-23T05:52:34;18.73;;;5.03;;
83649;SDS011;73612;50.948;6.956;2024-03-23T05:55:00;16.87;;;4.93;;
83649;SDS011;73612;50.948;6.956;2024-03-23T05:57:27;16.03;;;5.10;;
83649;SDS011;73612;50.948;6.956;2024-03-23T05:59:53;10.80;;;4.23;;
83649;SDS011;73612;50.948;6.956;2024-03-23T06:02:20;21.73;;;5.30;;
83649;SDS011;73612;50.948;6.956;2024-03-23T06:04:47;21.03;;;5.20;;
83649;SDS011;73612;50.948;6.956;2024-03-23T06:07:13;14.07;;;3.83;;
83649;SDS011;73612;50.948;6.956;2024-03-23T06:09:41;10.33;;;3.70;;
83649;SDS011;73612;50.948;6.956;2024-03-23T06:12:07;18.20;;;5.10;;
83649;SDS011;73612;50.948;6.956;2024-03-23T06:14:34;21.93;;;5.20;;
83649;SDS011;73612;50.948;6.956;2024-03-23T06:17:01;24.03;;;6.00;;
83649;SDS011;73612;50.948;6.956;2024-03-23T06:19:28;15.23;;;6.00;;
83649;SDS011;73612;50.948;6.956;2024-03-23T06:21:54;16.77;;;3.87;;
83649;SDS011;73612;50.948;6.956;2024-03-23T06:24:21;20.97;;;5.70;;
83649;SDS011;73612;50.948;6.956;2024-03-23T06:26:48;25.87;;;5.40;;
83649;SDS011;73612;50.948;6.956;2024-03-23T06:29:14;20.23;;;5.80;;
83649;SDS011;73612;50.948;6.956;2024-03-23T06:31:41;15.37;;;4.53;;
83649;SDS011;73612;50.948;6.956;2024-03-23T06:34:08;22.03;;;5.60;;
83649;SDS011;73612;50.948;6.956;2024-03-23T06:36:35;23.33;;;6.03;;
83649;SDS011;73612;50.948;6.956;2024-03-23T06:39:01;25.90;;;5.70;;
83649;SDS011;73612;50.948;6.956;2024-03-23T06:41:28;19.63;;;6.07;;
83649;SDS011;73612;50.948;6.956;2024-03-23T06:43:55;25.80;;;6.17;;
83649;SDS011;73612;50.948;6.956;2024-03-23T06:46:21;23.33;;;6.40;;
83649;SDS011;73612;50.948;6.956;2024-03-23T06:48:48;21.90;;;6.27;;
83649;SDS011;73612;50.948;6.956;2024-03-23T06:51:15;22.90;;;6.40;;
83649;SDS011;73612;50.948;6.956;2024-03-23T06:53:41;20.47;;;5.60;;
83649;SDS011;73612;50.948;6.956;2024-03-23T06:56:09;22.20;;;5.73;;
83649;SDS011;73612;50.948;6.956;2024-03-23T06:58:36;13.87;;;5.43;;
83649;SDS011;73612;50.948;6.956;2024-03-23T07:01:02;21.00;;;6.33;;
83649;SDS011;73612;50.948;6.956;2024-03-23T07:03:29;17.33;;;6.03;;
83649;SDS011;73612;50.948;6.956;2024-03-23T07:05:58;28.90;;;6.97;;
83649;SDS011;73612;50.948;6.956;2024-03-23T07:08:25;22.27;;;7.17;;
83649;SDS011;73612;50.948;6.956;2024-03-23T07:10:52;12.00;;;4.47;;
83649;SDS011;73612;50.948;6.956;2024-03-23T07:13:19;25.23;;;6.73;;
83649;SDS011;73612;50.948;6.956;2024-03-23T07:15:50;21.30;;;7.20;;
83649;SDS011;73612;50.948;6.956;2024-03-23T07:18:12;22.27;;;6.50;;
83649;SDS011;73612;50.948;6.956;2024-03-23T07:20:39;29.07;;;6.93;;
83649;SDS011;73612;50.948;6.956;2024-03-23T07:23:06;23.83;;;8.37;;
83649;SDS011;73612;50.948;6.956;2024-03-23T07:25:32;24.43;;;6.80;;
83649;SDS011;73612;50.948;6.956;2024-03-23T07:27:59;16.23;;;6.07;;
83649;SDS011;73612;50.948;6.956;2024-03-23T07:30:26;25.13;;;7.77;;
83649;SDS011;73612;50.948;6.956;2024-03-23T07:32:52;27.40;;;8.13;;
83649;SDS011;73612;50.948;6.956;2024-03-23T07:35:19;24.03;;;7.10;;
83649;SDS011;73612;50.948;6.956;2024-03-23T07:37:45;21.37;;;7.97;;
83649;SDS011;73612;50.948;6.956;2024-03-23T07:40:12;18.33;;;7.17;;
83649;SDS011;73612;50.948;6.956;2024-03-23T07:42:39;25.10;;;8.03;;
83649;SDS011;73612;50.948;6.956;2024-03-23T07:45:05;31.37;;;9.60;;
83649;SDS011;73612;50.948;6.956;2024-03-23T07:47:32;25.67;;;8.60;;
83649;SDS011;73612;50.948;6.956;2024-03-23T07:49:59;15.43;;;6.80;;
83649;SDS011;73612;50.948;6.956;2024-03-23T07:52:28;26.37;;;8.37;;
83649;SDS011;73612;50.948;6.956;2024-03-23T07:54:55;20.83;;;8.40;;
83649;SDS011;73612;50.948;6.956;2024-03-23T07:57:21;27.73;;;10.23;;
83649;SDS011;73612;50.948;6.956;2024-03-23T07:59:48;26.07;;;9.93;;
83649;SDS011;73612;50.948;6.956;2024-03-23T08:02:15;28.30;;;10.23;;
83649;SDS011;73612;50.948;6.956;2024-03-23T08:04:41;19.13;;;8.90;;
83649;SDS011;73612;50.948;6.956;2024-03-23T08:09:50;21.50;;;8.83;;
83649;SDS011;73612;50.948;6.956;2024-03-23T08:12:32;20.87;;;8.20;;
83649;SDS011;73612;50.948;6.956;2024-03-23T08:15:16;19.47;;;7.63;;
83649;SDS011;73612;50.948;6.956;2024-03-23T08:17:54;14.97;;;7.90;;
83649;SDS011;73612;50.948;6.956;2024-03-23T08:20:27;21.93;;;9.63;;
83649;SDS011;73612;50.948;6.956;2024-03-23T08:23:06;21.97;;;7.63;;
83649;SDS011;73612;50.948;6.956;2024-03-23T08:25:40;18.20;;;7.40;;
83649;SDS011;73612;50.948;6.956;2024-03-23T08:28:06;18.40;;;7.83;;
83649;SDS011;73612;50.948;6.956;2024-03-23T08:30:34;14.10;;;6.47;;
83649;SDS011;73612;50.948;6.956;2024-03-23T08:32:59;16.37;;;6.23;;
83649;SDS011;73612;50.948;6.956;2024-03-23T08:35:26;15.27;;;5.67;;
83649;SDS011;73612;50.948;6.956;2024-03-23T08:37:53;10.80;;;3.63;;
83649;SDS011;73612;50.948;6.956;2024-03-23T08:40:19;12.33;;;4.90;;
83649;SDS011;73612;50.948;6.956;2024-03-23T08:42:46;18.77;;;5.00;;
83649;SDS011;73612;50.948;6.956;2024-03-23T08:45:12;10.33;;;5.00;;
83649;SDS011;73612;50.948;6.956;2024-03-23T08:47:39;18.40;;;6.80;;
83649;SDS011;73612;50.948;6.956;2024-03-23T08:50:06;10.70;;;5.00;;
83649;SDS011;73612;50.948;6.956;2024-03-23T08:52:33;20.30;;;6.67;;
83649;SDS011;73612;50.948;6.956;2024-03-23T08:55:00;15.37;;;6.67;;
83649;SDS011;73612;50.948;6.956;2024-03-23T08:57:27;16.77;;;7.17;;
83649;SDS011;73612;50.948;6.956;2024-03-23T08:59:53;16.37;;;7.57;;
83649;SDS011;73612;50.948;6.956;2024-03-23T09:02:20;24.13;;;8.53;;
83649;SDS011;73612;50.948;6.956;2024-03-23T09:04:46;22.53;;;8.10;;
83649;SDS011;73612;50.948;6.956;2024-03-23T09:07:13;18.67;;;7.90;;
83649;SDS011;73612;50.948;6.956;2024-03-23T09:09:40;18.40;;;6.93;;
83649;SDS011;73612;50.948;6.956;2024-03-23T09:12:06;15.07;;;6.70;;
83649;SDS011;73612;50.948;6.956;2024-03-23T09:14:33;14.63;;;7.20;;
83649;SDS011;73612;50.948;6.956;2024-03-23T09:16:59;20.40;;;7.37;;
83649;SDS011;73612;50.948;6.956;2024-03-23T09:19:28;14.10;;;6.07;;
83649;SDS011;73612;50.948;6.956;2024-03-23T09:21:55;19.07;;;6.60;;
83649;SDS011;73612;50.948;6.956;2024-03-23T09:24:21;18.10;;;6.57;;
83649;SDS011;73612;50.948;6.956;2024-03-23T09:26:48;14.33;;;5.47;;
83649;SDS011;73612;50.948;6.956;2024-03-23T09:29:15;15.93;;;6.57;;
83649;SDS011;73612;50.948;6.956;2024-03-23T09:31:42;10.47;;;4.20;;
83649;SDS011;73612;50.948;6.956;2024-03-23T09:34:08;15.87;;;4.53;;
83649;SDS011;73612;50.948;6.956;2024-03-23T09:36:35;17.77;;;5.50;;
83649;SDS011;73612;50.948;6.956;2024-03-23T09:39:02;15.33;;;5.17;;
83649;SDS011;73612;50.948;6.956;2024-03-23T09:41:29;19.10;;;5.50;;
83649;SDS011;73612;50.948;6.956;2024-03-23T09:52:06;16.57;;;4.93;;
83649;SDS011;73612;50.948;6.956;2024-03-23T09:54:48;12.57;;;4.30;;
83649;SDS011;73612;50.948;6.956;2024-03-23T09:57:17;12.43;;;5.23;;
83649;SDS011;73612;50.948;6.956;2024-03-23T09:59:46;17.20;;;5.17;;
83649;SDS011;73612;50.948;6.956;2024-03-23T10:02:13;15.30;;;5.77;;
83649;SDS011;73612;50.948;6.956;2024-03-23T10:04:41;14.57;;;4.87;;
83649;SDS011;73612;50.948;6.956;2024-03-23T10:07:11;17.03;;;6.40;;
83649;SDS011;73612;50.948;6.956;2024-03-23T10:09:38;12.37;;;4.10;;
83649;SDS011;73612;50.948;6.956;2024-03-23T10:12:10;16.03;;;5.20;;
83649;SDS011;73612;50.948;6.956;2024-03-23T10:14:37;14.83;;;5.33;;
83649;SDS011;73612;50.948;6.956;2024-03-23T10:17:11;19.73;;;7.37;;
83649;SDS011;73612;50.948;6.956;2024-03-23T10:19:40;16.83;;;5.03;;
83649;SDS011;73612;50.948;6.956;2024-03-23T10:22:06;8.00;;;3.30;;
83649;SDS011;73612;50.948;6.956;2024-03-23T10:24:33;14.80;;;3.37;;
83649;SDS011;73612;50.948;6.956;2024-03-23T10:27:00;9.13;;;3.30;;
83649;SDS011;73612;50.948;6.956;2024-03-23T10:29:26;14.83;;;4.77;;
83649;SDS011;73612;50.948;6.956;2024-03-23T10:31:53;10.17;;;3.43;;
83649;SDS011;73612;50.948;6.956;2024-03-23T10:34:25;8.57;;;2.97;;
83649;SDS011;73612;50.948;6.956;2024-03-23T10:36:53;8.80;;;3.10;;
83649;SDS011;73612;50.948;6.956;2024-03-23T10:39:18;9.23;;;3.03;;
83649;SDS011;73612;50.948;6.956;2024-03-23T10:41:44;5.47;;;2.50;;
83649;SDS011;73612;50.948;6.956;2024-03-23T10:44:11;7.47;;;2.97;;
83649;SDS011;73612;50.948;6.956;2024-03-23T10:46:38;9.37;;;3.00;;
83649;SDS011;73612;50.948;6.956;2024-03-23T10:49:05;12.90;;;2.73;;
83649;SDS011;73612;50.948;6.956;2024-03-23T10:51:32;11.63;;;3.63;;
83649;SDS011;73612;50.948;6.956;2024-03-23T10:53:59;7.43;;;2.93;;
83649;SDS011;73612;50.948;6.956;2024-03-23T10:56:25;6.43;;;2.73;;
83649;SDS011;73612;50.948;6.956;2024-03-23T10:58:52;15.40;;;4.43;;
83649;SDS011;73612;50.948;6.956;2024-03-23T11:01:19;11.27;;;3.63;;
83649;SDS011;73612;50.948;6.956;2024-03-23T11:03:46;8.23;;;2.90;;
83649;SDS011;73612;50.948;6.956;2024-03-23T11:06:33;8.63;;;2.50;;
83649;SDS011;73612;50.948;6.956;2024-03-23T11:08:45;8.23;;;2.50;;
83649;SDS011;73612;50.948;6.956;2024-03-23T11:11:17;7.40;;;2.90;;
83649;SDS011;73612;50.948;6.956;2024-03-23T11:13:46;5.77;;;2.43;;
83649;SDS011;73612;50.948;6.956;2024-03-23T11:16:13;5.00;;;2.67;;
83649;SDS011;73612;50.948;6.956;2024-03-23T11:18:39;11.90;;;4.90;;
83649;SDS011;73612;50.948;6.956;2024-03-23T11:21:07;9.77;;;3.30;;
83649;SDS011;73612;50.948;6.956;2024-03-23T11:23:33;11.13;;;4.87;;
83649;SDS011;73612;50.948;6.956;2024-03-23T11:26:00;9.20;;;2.07;;
83649;SDS011;73612;50.948;6.956;2024-03-23T11:28:27;4.80;;;2.30;;
83649;SDS011;73612;50.948;6.956;2024-03-23T11:30:53;6.17;;;1.97;;
83649;SDS011;73612;50.948;6.956;2024-03-23T11:33:20;6.33;;;2.33;;
83649;SDS011;73612;50.948;6.956;2024-03-23T11:35:46;5.67;;;2.13;;
83649;SDS011;73612;50.948;6.956;2024-03-23T11:38:14;5.10;;;1.80;;
83649;SDS011;73612;50.948;6.956;2024-03-23T11:40:41;2.27;;;1.70;;
83649;SDS011;73612;50.948;6.956;2024-03-23T11:43:08;4.83;;;1.97;;
83649;SDS011;73612;50.948;6.956;2024-03-23T11:45:35;4.87;;;2.10;;
83649;SDS011;73612;50.948;6.956;2024-03-23T11:48:04;4.57;;;1.90;;
83649;SDS011;73612;50.948;6.956;2024-03-23T11:50:31;5.13;;;2.90;;
83649;SDS011;73612;50.948;6.956;2024-03-23T11:58:06;3.90;;;2.23;;
83649;SDS011;73612;50.948;6.956;2024-03-23T12:00:34;21.80;;;9.33;;
83649;SDS011;73612;50.948;6.956;2024-03-23T12:03:01;19.57;;;8.63;;
83649;SDS011;73612;50.948;6.956;2024-03-23T12:05:28;47.97;;;20.53;;
83649;SDS011;73612;50.948;6.956;2024-03-23T12:07:55;13.73;;;6.57;;
83649;SDS011;73612;50.948;6.956;2024-03-23T12:10:22;21.37;;;10.57;;
83649;SDS011;73612;50.948;6.956;2024-03-23T12:13:03;33.07;;;13.53;;
83649;SDS011;73612;50.948;6.956;2024-03-23T12:15:30;64.67;;;27.97;;
83649;SDS011;73612;50.948;6.956;2024-03-23T12:20:32;25.97;;;11.17;;
83649;SDS011;73612;50.948;6.956;2024-03-23T12:25:33;6.30;;;2.57;;
83649;SDS011;73612;50.948;6.956;2024-03-23T12:27:59;6.53;;;2.60;;
83649;SDS011;73612;50.948;6.956;2024-03-23T12:30:26;6.27;;;3.33;;
83649;SDS011;73612;50.948;6.956;2024-03-23T12:32:53;4.67;;;3.17;;
83649;SDS011;73612;50.948;6.956;2024-03-23T12:35:19;3.60;;;1.90;;
83649;SDS011;73612;50.948;6.956;2024-03-23T12:37:46;5.90;;;2.20;;
83649;SDS011;73612;50.948;6.956;2024-03-23T12:40:13;3.13;;;1.93;;
83649;SDS011;73612;50.948;6.956;2024-03-23T12:42:39;4.33;;;2.40;;
83649;SDS011;73612;50.948;6.956;2024-03-23T12:45:06;3.60;;;2.67;;
83649;SDS011;73612;50.948;6.956;2024-03-23T12:47:33;5.10;;;1.97;;
83649;SDS011;73612;50.948;6.956;2024-03-23T12:50:00;3.97;;;2.00;;
83649;SDS011;73612;50.948;6.956;2024-03-23T12:52:27;3.37;;;1.60;;
83649;SDS011;73612;50.948;6.956;2024-03-23T12:54:54;4.67;;;2.10;;
83649;SDS011;73612;50.948;6.956;2024-03-23T12:57:21;2.03;;;1.50;;
83649;SDS011;73612;50.948;6.956;2024-03-23T12:59:48;2.87;;;1.60;;
83649;SDS011;73612;50.948;6.956;2024-03-23T13:02:15;13.87;;;6.43;;
83649;SDS011;73612;50.948;6.956;2024-03-23T13:04:41;6.67;;;2.53;;
83649;SDS011;73612;50.948;6.956;2024-03-23T13:07:08;7.93;;;2.40;;
83649;SDS011;73612;50.948;6.956;2024-03-23T13:09:35;4.60;;;2.10;;
83649;SDS011;73612;50.948;6.956;2024-03-23T13:12:01;2.73;;;2.10;;
83649;SDS011;73612;50.948;6.956;2024-03-23T13:14:28;17.43;;;8.73;;
83649;SDS011;73612;50.948;6.956;2024-03-23T13:16:55;7.17;;;3.30;;
83649;SDS011;73612;50.948;6.956;2024-03-23T13:19:21;6.30;;;2.90;;
83649;SDS011;73612;50.948;6.956;2024-03-23T13:21:48;5.23;;;2.67;;
83649;SDS011;73612;50.948;6.956;2024-03-23T13:24:15;18.13;;;9.10;;
83649;SDS011;73612;50.948;6.956;2024-03-23T13:26:41;11.37;;;5.10;;
83649;SDS011;73612;50.948;6.956;2024-03-23T13:29:08;8.27;;;4.83;;
83649;SDS011;73612;50.948;6.956;2024-03-23T13:31:35;6.83;;;2.73;;
83649;SDS011;73612;50.948;6.956;2024-03-23T13:34:01;9.43;;;4.33;;
83649;SDS011;73612;50.948;6.956;2024-03-23T13:36:28;14.30;;;7.03;;
83649;SDS011;73612;50.948;6.956;2024-03-23T13:38:55;28.40;;;15.87;;
83649;SDS011;73612;50.948;6.956;2024-03-23T13:41:21;78.13;;;35.40;;
83649;SDS011;73612;50.948;6.956;2024-03-23T13:43:48;58.50;;;24.83;;
83649;SDS011;73612;50.948;6.956;2024-03-23T13:46:15;8.20;;;3.43;;
83649;SDS011;73612;50.948;6.956;2024-03-23T13:48:41;13.60;;;6.63;;
83649;SDS011;73612;50.948;6.956;2024-03-23T13:51:08;28.13;;;13.43;;
83649;SDS011;73612;50.948;6.956;2024-03-23T13:53:34;24.07;;;11.47;;
83649;SDS011;73612;50.948;6.956;2024-03-23T13:56:01;52.83;;;22.83;;
83649;SDS011;73612;50.948;6.956;2024-03-23T13:58:28;56.63;;;24.80;;
83649;SDS011;73612;50.948;6.956;2024-03-23T14:00:56;32.97;;;14.87;;
83649;SDS011;73612;50.948;6.956;2024-03-23T14:03:21;10.93;;;3.10;;
83649;SDS011;73612;50.948;6.956;2024-03-23T14:05:48;5.07;;;2.60;;
83649;SDS011;73612;50.948;6.956;2024-03-23T14:08:14;3.70;;;1.83;;
83649;SDS011;73612;50.948;6.956;2024-03-23T14:10:42;4.33;;;2.13;;
83649;SDS011;73612;50.948;6.956;2024-03-23T14:13:09;8.10;;;3.60;;
83649;SDS011;73612;50.948;6.956;2024-03-23T14:15:37;22.97;;;10.60;;
83649;SDS011;73612;50.948;6.956;2024-03-23T14:18:04;28.03;;;12.70;;
83649;SDS011;73612;50.948;6.956;2024-03-23T14:20:31;17.47;;;9.07;;
83649;SDS011;73612;50.948;6.956;2024-03-23T14:22:57;12.87;;;6.77;;
83649;SDS011;73612;50.948;6.956;2024-03-23T14:25:24;9.83;;;4.93;;
83649;SDS011;73612;50.948;6.956;2024-03-23T14:27:51;34.47;;;14.80;;
83649;SDS011;73612;50.948;6.956;2024-03-23T14:30:17;30.63;;;13.40;;
83649;SDS011;73612;50.948;6.956;2024-03-23T14:32:44;13.40;;;5.63;;
83649;SDS011;73612;50.948;6.956;2024-03-23T14:35:11;36.80;;;17.27;;
83649;SDS011;73612;50.948;6.956;2024-03-23T14:37:37;15.13;;;7.60;;
83649;SDS011;73612;50.948;6.956;2024-03-23T14:40:04;32.23;;;16.63;;
83649;SDS011;73612;50.948;6.956;2024-03-23T14:42:31;12.87;;;6.97;;
83649;SDS011;73612;50.948;6.956;2024-03-23T14:44:58;33.03;;;16.13;;
83649;SDS011;73612;50.948;6.956;2024-03-23T14:47:25;27.23;;;10.67;;
83649;SDS011;73612;50.948;6.956;2024-03-23T14:49:52;28.20;;;12.70;;
83649;SDS011;73612;50.948;6.956;2024-03-23T14:52:19;38.77;;;15.60;;
83649;SDS011;73612;50.948;6.956;2024-03-23T14:54:46;26.10;;;10.33;;
83649;SDS011;73612;50.948;6.956;2024-03-23T14:57:13;10.30;;;4.10;;
83649;SDS011;73612;50.948;6.956;2024-03-23T14:59:39;28.63;;;12.77;;
83649;SDS011;73612;50.948;6.956;2024-03-23T15:02:09;124.20;;;47.13;;
83649;SDS011;73612;50.948;6.956;2024-03-23T15:04:36;44.00;;;19.63;;
83649;SDS011;73612;50.948;6.956;2024-03-23T15:07:02;24.40;;;13.03;;
83649;SDS011;73612;50.948;6.956;2024-03-23T15:09:29;43.00;;;21.03;;
83649;SDS011;73612;50.948;6.956;2024-03-23T15:11:56;25.77;;;13.03;;
83649;SDS011;73612;50.948;6.956;2024-03-23T15:14:23;31.87;;;14.67;;
83649;SDS011;73612;50.948;6.956;2024-03-23T15:16:49;9.93;;;4.53;;
83649;SDS011;73612;50.948;6.956;2024-03-23T15:19:16;18.90;;;7.93;;
83649;SDS011;73612;50.948;6.956;2024-03-23T15:21:43;38.77;;;17.97;;
83649;SDS011;73612;50.948;6.956;2024-03-23T15:24:10;83.57;;;36.60;;
83649;SDS011;73612;50.948;6.956;2024-03-23T15:26:37;87.33;;;39.77;;
83649;SDS011;73612;50.948;6.956;2024-03-23T15:29:04;59.60;;;29.43;;
83649;SDS011;73612;50.948;6.956;2024-03-23T15:31:34;96.93;;;43.67;;
83649;SDS011;73612;50.948;6.956;2024-03-23T15:34:01;77.67;;;33.80;;
83649;SDS011;73612;50.948;6.956;2024-03-23T15:36:27;74.43;;;30.10;;
83649;SDS011;73612;50.948;6.956;2024-03-23T15:38:54;82.27;;;30.60;;
83649;SDS011;73612;50.948;6.956;2024-03-23T15:41:21;138.93;;;48.90;;
83649;SDS011;73612;50.948;6.956;2024-03-23T15:43:51;177.23;;;64.90;;
83649;SDS011;73612;50.948;6.956;2024-03-23T15:46:18;28.83;;;14.57;;